createdAt,value
2022-12-17T02:01:59.925Z,23.50
2022-12-17T02:03:22.250Z,23.95
2022-12-17T02:04:43.603Z,25.33
2022-12-17T02:06:16.529Z,22.98
2022-12-17T02:08:07.650Z,23.02
2022-12-17T02:09:38.900Z,22.50
2022-12-17T02:11:11.586Z,21.35
2022-12-17T02:13:01.270Z,19.67
2022-12-17T02:14:51.493Z,19.55
2022-12-17T02:16:31.319Z,19.23
2022-12-17T02:18:07.151Z,17.75
2022-12-17T02:19:51.983Z,21.48
2022-12-17T02:21:15.872Z,20.45
2022-12-17T02:22:53.441Z,21.15
2022-12-17T02:24:30.506Z,21.45
2022-12-17T02:26:19.407Z,21.38
2022-12-17T02:27:41.650Z,23.13
2022-12-17T02:29:07.566Z,22.98
2022-12-17T02:30:29.435Z,23.17
2022-12-17T02:31:52.317Z,24.02
2022-12-17T02:33:13.824Z,23.92
2022-12-17T02:34:38.178Z,24.05
2022-12-17T02:36:06.356Z,22.88
2022-12-17T02:37:26.888Z,22.73
2022-12-17T02:38:50.520Z,23.85
2022-12-17T02:40:11.458Z,23.63
2022-12-17T02:41:37.297Z,24.17
2022-12-17T02:43:03.678Z,24.23
2022-12-17T02:44:27.863Z,22.83
2022-12-17T02:45:49.620Z,23.15
2022-12-17T02:47:13.230Z,22.83
2022-12-17T02:48:35.217Z,22.50
2022-12-17T02:49:56.262Z,24.85
2022-12-17T02:51:17.973Z,24.52
2022-12-17T02:52:40.475Z,24.48
2022-12-17T02:54:02.955Z,24.60
2022-12-17T02:56:45.015Z,23.88
2022-12-17T02:58:05.854Z,23.38
2022-12-17T02:59:26.719Z,24.80
2022-12-17T03:00:47.361Z,23.73
2022-12-17T03:02:08.214Z,26.55
2022-12-17T03:03:29.503Z,25.73
2022-12-17T03:04:50.173Z,26.33
2022-12-17T03:06:11.014Z,24.38
2022-12-17T03:07:32.122Z,25.15
2022-12-17T03:08:52.941Z,25.08
2022-12-17T03:10:13.656Z,25.90
2022-12-17T03:11:36.857Z,24.85
2022-12-17T03:12:57.648Z,25.27
2022-12-17T03:14:18.745Z,25.45
2022-12-17T03:15:39.316Z,30.20
2022-12-17T03:16:59.787Z,31.38
2022-12-17T03:18:20.861Z,30.10
2022-12-17T03:19:41.435Z,27.95
2022-12-17T03:21:02.022Z,29.27
2022-12-17T03:22:23.284Z,30.48
2022-12-17T03:23:43.676Z,28.27
2022-12-17T03:25:04.677Z,25.33
2022-12-17T03:26:25.758Z,25.83
2022-12-17T03:27:46.260Z,25.38
2022-12-17T03:29:07.807Z,24.90
2022-12-17T03:30:33.226Z,24.17
2022-12-17T03:31:56.861Z,24.88
2022-12-17T03:33:17.370Z,26.17
2022-12-17T03:34:38.365Z,24.15
2022-12-17T03:35:59.333Z,24.77
2022-12-17T03:37:20.429Z,26.75
2022-12-17T03:38:41.518Z,26.83
2022-12-17T03:40:02.140Z,26.23
2022-12-17T03:41:23.217Z,26.60
2022-12-17T03:42:44.257Z,27.63
2022-12-17T03:44:04.757Z,24.23
2022-12-17T03:45:25.609Z,28.60
2022-12-17T03:46:46.233Z,25.27
2022-12-17T03:48:07.543Z,24.33
2022-12-17T03:49:28.597Z,23.75
2022-12-17T03:50:49.215Z,23.50
2022-12-17T03:52:10.264Z,22.80
2022-12-17T03:53:31.201Z,24.02
2022-12-17T03:54:51.664Z,24.98
2022-12-17T03:56:12.629Z,29.70
2022-12-17T03:57:33.608Z,28.45
2022-12-17T03:58:54.624Z,30.83
2022-12-17T04:00:15.661Z,29.55
2022-12-17T04:01:36.948Z,31.15
2022-12-17T04:02:58.237Z,28.83
2022-12-17T04:04:19.053Z,29.50
2022-12-17T04:05:39.477Z,30.27
2022-12-17T04:06:59.941Z,29.60
2022-12-17T04:08:20.476Z,28.48
2022-12-17T04:09:41.762Z,31.50
2022-12-17T04:11:02.426Z,29.25
2022-12-17T04:12:23.510Z,29.85
2022-12-17T04:13:44.217Z,31.15
2022-12-17T04:15:05.097Z,31.92
2022-12-17T04:16:26.565Z,30.33
2022-12-17T04:17:47.783Z,39.10
2022-12-17T04:19:08.576Z,39.03
2022-12-17T04:20:29.532Z,33.75
2022-12-17T04:21:50.026Z,41.47
2022-12-17T04:23:10.626Z,36.90
2022-12-17T04:24:42.373Z,46.40
2022-12-17T04:26:03.406Z,44.05
2022-12-17T04:27:24.173Z,44.03
2022-12-17T04:28:45.126Z,55.45
2022-12-17T04:30:06.255Z,35.63
2022-12-17T04:31:26.723Z,35.28
2022-12-17T04:32:47.302Z,41.38
2022-12-17T04:34:07.750Z,38.20
2022-12-17T04:35:28.411Z,40.45
2022-12-17T04:36:49.069Z,41.22
2022-12-17T04:38:10.622Z,35.63
2022-12-17T04:39:31.593Z,36.75
2022-12-17T04:40:52.479Z,33.28
2022-12-17T04:42:13.943Z,39.60
2022-12-17T04:43:35.485Z,45.05
2022-12-17T04:44:56.502Z,49.05
2022-12-17T04:46:17.819Z,46.95
2022-12-17T04:47:38.743Z,39.85
2022-12-17T04:48:59.311Z,41.65
2022-12-17T04:50:19.803Z,44.75
2022-12-17T04:51:40.941Z,46.08
2022-12-17T04:53:01.927Z,43.17
2022-12-17T04:54:23.081Z,45.33
2022-12-17T04:55:43.557Z,41.92
2022-12-17T04:57:04.768Z,41.70
2022-12-17T04:58:25.560Z,42.97
2022-12-17T04:59:46.271Z,38.88
2022-12-17T05:01:26.354Z,43.50
2022-12-17T05:02:47.527Z,41.47
2022-12-17T05:04:08.244Z,37.30
2022-12-17T05:05:29.264Z,38.20
2022-12-17T05:06:49.715Z,42.03
2022-12-17T05:08:14.825Z,43.58
2022-12-17T05:09:35.374Z,40.63
2022-12-17T05:10:56.568Z,47.50
2022-12-17T05:12:17.109Z,48.40
2022-12-17T05:13:37.705Z,43.10
2022-12-17T05:14:59.097Z,55.47
2022-12-17T05:16:19.802Z,46.03
2022-12-17T05:17:40.379Z,47.13
2022-12-17T05:19:01.542Z,43.00
2022-12-17T05:20:22.618Z,44.72
2022-12-17T05:21:43.685Z,36.92
2022-12-17T05:23:04.851Z,54.72
2022-12-17T05:24:25.970Z,52.45
2022-12-17T05:25:46.521Z,44.83
2022-12-17T05:27:07.208Z,51.05
2022-12-17T05:28:28.258Z,40.90
2022-12-17T05:29:49.303Z,40.35
2022-12-17T05:31:12.053Z,46.03
2022-12-17T05:32:46.186Z,39.30
2022-12-17T05:34:07.277Z,51.65
2022-12-17T05:35:28.336Z,46.10
2022-12-17T05:36:48.887Z,50.97
2022-12-17T05:38:09.329Z,44.72
2022-12-17T05:39:30.496Z,46.80
2022-12-17T05:40:51.584Z,50.28
2022-12-17T05:42:12.194Z,38.25
2022-12-17T05:43:32.857Z,43.53
2022-12-17T05:44:53.444Z,37.00
2022-12-17T05:46:17.156Z,40.83
2022-12-17T05:47:38.354Z,38.90
2022-12-17T05:48:59.561Z,39.40
2022-12-17T05:50:19.997Z,35.30
2022-12-17T05:51:41.650Z,38.40
2022-12-17T05:53:02.238Z,37.35
2022-12-17T05:54:23.433Z,43.22
2022-12-17T05:55:44.602Z,36.47
2022-12-17T05:57:05.195Z,32.50
2022-12-17T05:58:29.075Z,37.58
2022-12-17T05:59:49.960Z,32.75
2022-12-17T06:01:18.735Z,32.83
2022-12-17T06:02:39.633Z,37.17
2022-12-17T06:04:00.812Z,34.83
2022-12-17T06:05:22.569Z,33.33
2022-12-17T06:06:43.719Z,34.70
2022-12-17T06:08:15.201Z,33.83
2022-12-17T06:09:36.055Z,32.03
2022-12-17T06:10:56.520Z,33.17
2022-12-17T06:12:17.058Z,35.40
2022-12-17T06:13:38.359Z,31.33
2022-12-17T06:14:59.537Z,30.60
2022-12-17T06:16:20.516Z,30.73
2022-12-17T06:17:41.787Z,30.70
2022-12-17T06:19:02.689Z,34.63
2022-12-17T06:20:23.835Z,32.63
2022-12-17T06:21:44.990Z,34.05
2022-12-17T06:23:06.015Z,28.40
2022-12-17T06:24:26.943Z,31.02
2022-12-17T06:25:47.728Z,29.80
2022-12-17T06:27:08.803Z,29.38
2022-12-17T06:28:29.755Z,31.38
2022-12-17T06:29:50.978Z,28.80
2022-12-17T06:31:13.192Z,30.65
2022-12-17T06:32:33.992Z,31.05
2022-12-17T06:33:55.215Z,29.40
2022-12-17T06:35:16.261Z,31.30
2022-12-17T06:36:36.975Z,35.88
2022-12-17T06:37:58.526Z,29.50
2022-12-17T06:39:19.763Z,27.95
2022-12-17T06:40:41.427Z,29.02
2022-12-17T06:42:04.574Z,31.20
2022-12-17T06:43:27.168Z,37.80
2022-12-17T06:44:47.729Z,33.97
2022-12-17T06:46:10.228Z,41.30
2022-12-17T06:47:31.588Z,42.78
2022-12-17T06:48:52.389Z,33.58
2022-12-17T06:50:12.937Z,36.33
2022-12-17T06:51:33.368Z,37.65
2022-12-17T06:52:54.450Z,34.90
2022-12-17T06:54:15.362Z,38.38
2022-12-17T06:55:35.987Z,47.55
2022-12-17T06:56:56.506Z,58.00
2022-12-17T06:58:18.549Z,41.03
2022-12-17T06:59:39.545Z,42.17
2022-12-17T07:01:00.634Z,41.50
2022-12-17T07:02:21.491Z,33.72
2022-12-17T07:03:42.174Z,34.30
2022-12-17T07:05:02.845Z,28.23
2022-12-17T07:06:23.857Z,30.27
2022-12-17T07:07:44.862Z,28.83
2022-12-17T07:09:06.054Z,30.13
2022-12-17T07:10:27.735Z,30.90
2022-12-17T07:11:48.812Z,35.85
2022-12-17T07:13:09.409Z,31.13
2022-12-17T07:14:30.216Z,36.78
2022-12-17T07:15:50.953Z,31.92
2022-12-17T07:17:11.903Z,39.33
2022-12-17T07:18:32.921Z,35.33
2022-12-17T07:19:54.081Z,33.45
2022-12-17T07:21:14.575Z,36.85
2022-12-17T07:22:34.985Z,35.65
2022-12-17T07:23:56.151Z,37.90
2022-12-17T07:25:17.716Z,38.28
2022-12-17T07:26:39.305Z,40.13
2022-12-17T07:27:59.735Z,34.30
2022-12-17T07:29:23.431Z,35.28
2022-12-17T07:30:44.404Z,30.60
2022-12-17T07:32:05.636Z,29.65
2022-12-17T07:33:28.509Z,29.70
2022-12-17T07:34:49.859Z,30.10
2022-12-17T07:36:12.105Z,30.30
2022-12-17T07:37:33.301Z,33.53
2022-12-17T07:38:53.828Z,31.17
2022-12-17T07:40:14.473Z,28.13
2022-12-17T07:41:34.997Z,29.25
2022-12-17T07:42:58.512Z,30.60
2022-12-17T07:44:19.700Z,29.15
2022-12-17T07:45:41.202Z,30.85
2022-12-17T07:47:02.294Z,30.38
2022-12-17T07:48:23.144Z,27.60
2022-12-17T07:49:44.089Z,30.60
2022-12-17T07:51:09.238Z,28.10
2022-12-17T07:52:30.261Z,28.77
2022-12-17T07:53:52.094Z,29.90
2022-12-17T07:55:18.073Z,30.85
2022-12-17T07:56:39.470Z,29.70
2022-12-17T07:58:00.571Z,29.08
2022-12-17T07:59:22.325Z,28.08
2022-12-17T08:00:48.951Z,28.13
2022-12-17T08:02:10.192Z,30.25
2022-12-17T08:03:42.731Z,31.48
2022-12-17T08:05:03.629Z,29.92
2022-12-17T08:06:24.651Z,31.00
2022-12-17T08:07:45.747Z,29.80
2022-12-17T08:09:13.877Z,30.27
2022-12-17T08:10:35.070Z,30.38
2022-12-17T08:11:56.145Z,29.50
2022-12-17T08:13:36.302Z,31.67
2022-12-17T08:14:57.492Z,30.77
2022-12-17T08:16:18.922Z,31.52
2022-12-17T08:17:40.040Z,30.63
2022-12-17T08:19:01.080Z,31.42
2022-12-17T08:20:22.258Z,34.72
2022-12-17T08:21:43.373Z,34.13
2022-12-17T08:23:04.452Z,35.25
2022-12-17T08:24:25.568Z,38.08
2022-12-17T08:25:46.528Z,36.20
2022-12-17T08:27:07.651Z,33.78
2022-12-17T08:28:49.470Z,34.58
2022-12-17T08:30:09.170Z,29.08
2022-12-17T08:31:29.784Z,31.58
2022-12-17T08:32:50.839Z,33.00
2022-12-17T08:34:14.436Z,31.85
2022-12-17T08:35:35.603Z,34.08
2022-12-17T08:36:56.324Z,29.70
2022-12-17T08:38:26.118Z,31.30
2022-12-17T08:39:47.256Z,29.98
2022-12-17T08:41:08.486Z,27.55
2022-12-17T08:42:29.553Z,29.98
2022-12-17T08:43:50.054Z,30.77
2022-12-17T08:45:10.661Z,32.22
2022-12-17T08:46:31.366Z,29.58
2022-12-17T08:47:52.787Z,28.42
2022-12-17T08:49:13.735Z,30.90
2022-12-17T08:50:34.874Z,31.88
2022-12-17T08:51:55.902Z,29.20
2022-12-17T08:53:21.630Z,29.45
2022-12-17T08:54:42.221Z,29.67
2022-12-17T08:56:03.246Z,31.13
2022-12-17T08:57:31.535Z,33.17
2022-12-17T08:58:58.690Z,39.58
2022-12-17T09:00:20.372Z,35.72
2022-12-17T09:01:41.059Z,33.85
2022-12-17T09:03:02.419Z,30.73
2022-12-17T09:04:23.631Z,33.95
2022-12-17T09:05:44.681Z,30.20
2022-12-17T09:07:05.298Z,31.42
2022-12-17T09:08:26.411Z,29.50
2022-12-17T09:09:46.907Z,36.88
2022-12-17T09:11:07.934Z,30.92
2022-12-17T09:12:28.781Z,30.05
2022-12-17T09:13:49.983Z,33.08
2022-12-17T09:15:10.628Z,33.08
2022-12-17T09:16:31.651Z,32.95
2022-12-17T09:17:52.405Z,34.05
2022-12-17T09:19:12.962Z,32.15
2022-12-17T09:20:33.968Z,34.90
2022-12-17T09:21:54.737Z,35.03
2022-12-17T09:23:15.808Z,33.70
2022-12-17T09:24:36.305Z,36.22
2022-12-17T09:25:58.346Z,31.42
2022-12-17T09:27:19.577Z,33.22
2022-12-17T09:28:40.815Z,30.30
2022-12-17T09:30:01.758Z,32.50
2022-12-17T09:31:23.362Z,31.33
2022-12-17T09:32:44.357Z,32.78
2022-12-17T09:34:05.500Z,31.70
2022-12-17T09:35:26.594Z,29.95
2022-12-17T09:36:51.154Z,32.58
2022-12-17T09:38:13.496Z,33.22
2022-12-17T09:39:34.245Z,35.22
2022-12-17T09:40:55.515Z,34.38
2022-12-17T09:42:46.778Z,31.00
2022-12-17T09:44:24.335Z,31.27
2022-12-17T09:45:54.565Z,31.77
2022-12-17T09:47:32.314Z,34.03
2022-12-17T09:49:19.141Z,33.53
2022-12-17T09:50:40.291Z,31.95
2022-12-17T09:52:00.748Z,33.35
2022-12-17T09:53:32.426Z,34.83
2022-12-17T09:55:02.183Z,32.53
2022-12-17T09:56:25.191Z,34.50
2022-12-17T09:57:50.803Z,32.35
2022-12-17T09:59:11.845Z,33.78
2022-12-17T10:00:36.822Z,31.98
2022-12-17T10:02:00.688Z,29.83
2022-12-17T10:03:23.110Z,30.98
2022-12-17T10:04:59.940Z,37.05
2022-12-17T10:06:28.446Z,31.33
2022-12-17T10:07:54.793Z,31.08
2022-12-17T10:09:20.637Z,31.40
2022-12-17T10:10:45.133Z,29.27
2022-12-17T10:12:06.136Z,29.95
2022-12-17T10:13:30.912Z,30.70
2022-12-17T10:14:51.881Z,28.90
2022-12-17T10:16:12.958Z,30.45
2022-12-17T10:17:42.396Z,30.10
2022-12-17T10:19:04.576Z,30.67
2022-12-17T10:20:52.335Z,29.60
2022-12-17T10:22:12.897Z,27.35
2022-12-17T10:23:48.294Z,29.10
2022-12-17T10:25:08.749Z,31.33
2022-12-17T10:26:35.568Z,28.25
2022-12-17T10:27:56.550Z,30.75
2022-12-17T10:29:32.297Z,31.20
2022-12-17T10:30:53.404Z,31.35
2022-12-17T10:32:17.619Z,31.63
2022-12-17T10:33:39.730Z,32.45
2022-12-17T10:35:05.807Z,30.75
2022-12-17T10:36:40.440Z,31.08
2022-12-17T10:38:01.469Z,33.88
2022-12-17T10:39:23.636Z,37.10
2022-12-17T10:40:47.515Z,40.25
2022-12-17T10:42:08.807Z,39.25
2022-12-17T10:43:44.117Z,33.33
2022-12-17T10:45:05.063Z,33.88
2022-12-17T10:46:25.650Z,36.97
2022-12-17T10:47:47.160Z,32.55
2022-12-17T10:49:11.327Z,35.30
2022-12-17T10:50:41.335Z,46.75
2022-12-17T10:52:02.582Z,36.13
2022-12-17T10:53:36.115Z,35.78
2022-12-17T10:54:57.564Z,31.90
2022-12-17T10:56:19.076Z,35.58
2022-12-17T10:57:48.097Z,34.55
2022-12-17T10:59:11.630Z,37.83
2022-12-17T11:00:51.014Z,35.40
2022-12-17T11:02:16.429Z,33.85
2022-12-17T11:03:48.501Z,33.95
2022-12-17T11:05:11.712Z,43.17
2022-12-17T11:06:42.287Z,35.30
2022-12-17T11:08:03.722Z,37.83
2022-12-17T11:09:25.322Z,37.45
2022-12-17T11:11:01.657Z,37.38
2022-12-17T11:12:34.066Z,35.60
2022-12-17T11:14:05.665Z,39.30
2022-12-17T11:15:41.651Z,37.13
2022-12-17T11:17:13.748Z,39.22
2022-12-17T11:18:48.966Z,39.55
2022-12-17T11:20:14.071Z,40.28
2022-12-17T11:21:48.362Z,38.55
2022-12-17T11:23:12.929Z,37.90
2022-12-17T11:25:00.627Z,38.58
2022-12-17T11:26:37.430Z,34.78
2022-12-17T11:28:05.567Z,35.83
2022-12-17T11:29:32.323Z,34.80
2022-12-17T11:31:07.487Z,37.42
2022-12-17T11:32:52.254Z,35.45
2022-12-17T11:34:38.217Z,38.30
2022-12-17T11:36:10.433Z,36.17
2022-12-17T11:37:40.185Z,38.88
2022-12-17T11:39:11.825Z,37.72
2022-12-17T11:41:01.326Z,40.58
2022-12-17T11:42:34.586Z,39.63
2022-12-17T11:44:14.507Z,37.55
2022-12-17T11:45:42.259Z,34.72
2022-12-17T11:47:22.204Z,37.90
2022-12-17T11:48:56.611Z,34.30
2022-12-17T11:50:35.445Z,36.03
2022-12-17T11:52:14.513Z,35.85
2022-12-17T11:53:44.280Z,36.25
2022-12-17T11:55:23.048Z,38.70
2022-12-17T11:56:56.703Z,36.53
2022-12-17T11:58:24.282Z,45.15
2022-12-17T11:59:58.161Z,38.80
2022-12-17T12:02:16.611Z,38.70
2022-12-17T12:04:02.293Z,36.75
2022-12-17T12:06:00.714Z,37.28
2022-12-17T12:07:39.532Z,49.60
2022-12-17T12:09:03.198Z,45.33
2022-12-17T12:10:36.840Z,37.25
2022-12-17T12:12:08.547Z,39.25
2022-12-17T12:13:45.120Z,39.17
2022-12-17T12:15:14.845Z,43.65
2022-12-17T12:16:45.109Z,40.10
2022-12-17T12:18:21.775Z,41.70
2022-12-17T12:20:03.163Z,40.17
2022-12-17T12:21:58.572Z,41.45
2022-12-17T12:23:41.946Z,39.72
2022-12-17T12:25:36.086Z,39.30
2022-12-17T12:27:22.160Z,41.83
2022-12-17T12:28:42.627Z,40.35
2022-12-17T12:30:39.309Z,40.67
2022-12-17T12:32:12.046Z,42.10
2022-12-17T12:34:05.696Z,41.08
2022-12-17T12:35:33.672Z,41.00
2022-12-17T12:36:56.312Z,40.33
2022-12-17T12:38:18.953Z,42.95
2022-12-17T12:39:55.296Z,40.75
2022-12-17T12:41:35.443Z,42.53
2022-12-17T12:43:19.725Z,42.40
2022-12-17T12:45:03.993Z,44.42
2022-12-17T12:46:54.059Z,42.65
2022-12-17T12:48:52.444Z,44.83
2022-12-17T12:50:22.018Z,42.45
2022-12-17T12:51:46.668Z,41.22
2022-12-17T12:53:07.695Z,46.33
2022-12-17T12:54:50.685Z,42.70
2022-12-17T12:56:11.620Z,40.72
2022-12-17T12:57:48.874Z,45.15
2022-12-17T12:59:10.087Z,40.92
2022-12-17T13:00:53.182Z,41.58
2022-12-17T13:02:14.173Z,40.08
2022-12-17T13:04:16.275Z,41.13
2022-12-17T13:05:43.836Z,39.05
2022-12-17T13:06:56.933Z,40.88
2022-12-17T13:08:03.332Z,39.60
2022-12-17T13:09:17.961Z,40.65
2022-12-17T13:10:29.605Z,40.58
2022-12-17T13:11:38.122Z,41.40
2022-12-17T13:12:49.653Z,42.92
2022-12-17T13:13:56.515Z,43.40
2022-12-17T13:15:06.681Z,41.22
2022-12-17T13:16:33.097Z,43.38
2022-12-17T13:17:46.178Z,42.28
2022-12-17T13:18:48.821Z,42.90
2022-12-17T13:19:56.904Z,41.17
2022-12-17T13:21:04.734Z,40.92
2022-12-17T13:22:23.387Z,42.92
2022-12-17T13:23:30.757Z,42.65
2022-12-17T13:24:33.112Z,42.60
2022-12-17T13:25:35.889Z,42.75
2022-12-17T13:26:40.868Z,44.00
2022-12-17T13:27:43.661Z,44.92
2022-12-17T13:29:19.366Z,49.03
2022-12-17T13:30:31.054Z,46.03
2022-12-17T13:31:48.056Z,45.25
2022-12-17T13:33:08.960Z,47.55
2022-12-17T13:34:19.970Z,44.20
2022-12-17T13:35:30.389Z,46.92
2022-12-17T13:37:07.863Z,45.22
2022-12-17T13:38:35.120Z,43.05
2022-12-17T13:39:45.632Z,48.42
2022-12-17T13:41:13.112Z,45.10
2022-12-17T13:42:27.812Z,44.35
2022-12-17T13:43:38.516Z,44.80
2022-12-17T13:44:45.776Z,44.78
2022-12-17T13:45:50.435Z,47.05
2022-12-17T13:46:54.319Z,44.58
2022-12-17T13:47:58.802Z,44.60
2022-12-17T13:49:16.099Z,45.90
2022-12-17T13:50:37.174Z,43.63
2022-12-17T13:51:39.506Z,45.10
2022-12-17T13:52:41.769Z,42.33
2022-12-17T13:53:52.913Z,45.55
2022-12-17T13:55:08.050Z,46.03
2022-12-17T13:56:10.451Z,43.70
2022-12-17T13:57:18.805Z,44.38
2022-12-17T13:58:27.621Z,43.22
2022-12-17T13:59:30.126Z,42.50
2022-12-17T14:00:32.769Z,44.72
2022-12-17T14:01:45.552Z,44.30
2022-12-17T14:02:48.907Z,42.72
2022-12-17T14:04:06.253Z,44.08
2022-12-17T14:05:24.180Z,44.85
2022-12-17T14:06:34.125Z,42.53
2022-12-17T14:07:39.316Z,45.42
2022-12-17T14:08:42.332Z,43.30
2022-12-17T14:09:44.669Z,43.90
2022-12-17T14:11:14.448Z,45.90
2022-12-17T14:12:22.029Z,42.78
2022-12-17T14:13:25.621Z,46.17
2022-12-17T14:14:33.710Z,46.53
2022-12-17T14:15:36.733Z,46.22
2022-12-17T14:16:42.824Z,47.25
2022-12-17T14:17:50.686Z,45.88
2022-12-17T14:18:57.164Z,46.17
2022-12-17T14:20:05.155Z,47.58
2022-12-17T14:21:09.724Z,45.33
2022-12-17T14:22:32.373Z,45.20
2022-12-17T14:23:34.647Z,44.42
2022-12-17T14:24:36.900Z,44.97
2022-12-17T14:25:41.049Z,46.38
2022-12-17T14:26:52.110Z,42.85
2022-12-17T14:28:04.287Z,43.28
2022-12-17T14:29:14.028Z,43.88
2022-12-17T14:30:46.117Z,41.60
2022-12-17T14:38:02.842Z,48.03
2022-12-17T14:39:17.130Z,43.85
2022-12-17T14:40:19.855Z,43.88
2022-12-17T14:41:41.566Z,44.30
2022-12-17T14:42:43.978Z,45.15
2022-12-17T14:43:46.340Z,46.60
2022-12-17T14:45:03.192Z,44.38
2022-12-17T14:46:20.682Z,45.72
2022-12-17T14:47:36.515Z,42.22
2022-12-17T14:48:57.436Z,44.60
2022-12-17T14:50:17.870Z,43.30
2022-12-17T14:51:28.207Z,42.97
2022-12-17T14:52:48.751Z,40.80
2022-12-17T14:53:51.093Z,44.00
2022-12-17T14:54:53.457Z,42.35
2022-12-17T14:55:57.319Z,44.95
2022-12-17T14:57:00.434Z,43.70
2022-12-17T14:58:11.495Z,44.42
2022-12-17T14:59:33.624Z,45.92
2022-12-17T15:00:45.092Z,44.15
2022-12-17T15:01:51.339Z,44.05
2022-12-17T15:02:56.586Z,45.03
2022-12-17T15:03:59.365Z,45.50
2022-12-17T15:05:02.740Z,49.67
2022-12-17T15:06:08.061Z,49.17
2022-12-17T15:07:18.056Z,49.65
2022-12-17T15:08:21.726Z,49.65
2022-12-17T15:09:24.445Z,58.42
2022-12-17T15:10:26.664Z,72.88
2022-12-17T15:11:29.065Z,50.08
2022-12-17T15:12:31.316Z,48.03
2022-12-17T15:13:33.824Z,47.47
2022-12-17T15:14:36.084Z,53.33
2022-12-17T15:15:38.365Z,53.45
2022-12-17T15:16:41.114Z,47.03
2022-12-17T15:17:44.281Z,47.03
2022-12-17T15:18:46.544Z,48.50
2022-12-17T15:19:55.629Z,50.58
2022-12-17T15:20:58.346Z,47.70
2022-12-17T15:22:00.555Z,46.58
2022-12-17T15:23:02.891Z,46.75
2022-12-17T15:24:07.088Z,47.33
2022-12-17T15:25:15.863Z,49.13
2022-12-17T15:26:19.574Z,45.63
2022-12-17T15:27:21.842Z,47.42
2022-12-17T15:28:26.779Z,47.95
2022-12-17T15:29:29.055Z,49.92
2022-12-17T15:30:31.284Z,48.42
2022-12-17T15:31:35.662Z,49.88
2022-12-17T15:32:38.464Z,46.88
2022-12-17T15:33:41.473Z,46.13
2022-12-17T15:34:45.904Z,47.03
2022-12-17T15:35:48.201Z,46.97
2022-12-17T15:36:50.463Z,46.88
2022-12-17T15:37:52.918Z,45.45
2022-12-17T15:38:55.151Z,44.05
2022-12-17T15:39:57.428Z,46.97
2022-12-17T15:41:00.872Z,44.55
2022-12-17T15:42:21.914Z,45.25
2022-12-17T15:43:24.189Z,44.50
2022-12-17T15:44:26.660Z,43.25
2022-12-17T15:45:29.109Z,46.25
2022-12-17T15:46:31.365Z,44.03
2022-12-17T15:47:33.627Z,47.47
2022-12-17T15:48:37.166Z,46.30
2022-12-17T15:49:39.592Z,48.13
2022-12-17T15:50:44.591Z,47.30
2022-12-17T15:51:46.885Z,46.53
2022-12-17T15:52:49.069Z,44.90
2022-12-17T15:53:51.373Z,45.17
2022-12-17T15:54:53.618Z,47.10
2022-12-17T15:56:03.396Z,47.47
2022-12-17T15:57:05.684Z,47.80
2022-12-17T15:58:11.403Z,44.58
2022-12-17T15:59:13.707Z,46.70
2022-12-17T16:00:16.221Z,47.58
2022-12-17T16:01:19.784Z,49.90
2022-12-17T16:02:22.372Z,51.13
2022-12-17T16:03:24.867Z,48.47
2022-12-17T16:04:27.154Z,48.20
2022-12-17T16:05:29.536Z,53.08
2022-12-17T16:06:33.539Z,53.00
2022-12-17T16:07:36.968Z,46.15
2022-12-17T16:08:42.277Z,51.47
2022-12-17T16:09:47.508Z,49.60
2022-12-17T16:10:49.683Z,51.67
2022-12-17T16:11:55.382Z,51.63
2022-12-17T16:12:57.992Z,55.28
2022-12-17T16:14:00.615Z,54.55
2022-12-17T16:15:03.471Z,50.30
2022-12-17T16:16:06.964Z,49.50
2022-12-17T16:17:09.244Z,50.67
2022-12-17T16:18:11.426Z,52.55
2022-12-17T16:19:13.667Z,49.65
2022-12-17T16:20:18.638Z,49.85
2022-12-17T16:21:20.932Z,49.83
2022-12-17T16:22:27.710Z,51.20
2022-12-17T16:23:30.338Z,49.70
2022-12-17T16:24:32.597Z,49.22
2022-12-17T16:25:34.799Z,49.97
2022-12-17T16:26:39.276Z,49.75
2022-12-17T16:27:41.484Z,47.25
2022-12-17T16:28:49.253Z,48.67
2022-12-17T16:29:51.578Z,47.47
2022-12-17T16:31:05.540Z,50.50
2022-12-17T16:32:07.935Z,52.10
2022-12-17T16:33:10.273Z,48.97
2022-12-17T16:34:13.800Z,47.67
2022-12-17T16:35:16.134Z,50.78
2022-12-17T16:36:20.597Z,53.47
2022-12-17T16:37:22.858Z,51.58
2022-12-17T16:38:25.035Z,58.97
2022-12-17T16:39:28.282Z,65.30
2022-12-17T16:40:30.777Z,54.60
2022-12-17T16:41:33.685Z,57.33
2022-12-17T16:42:36.248Z,50.28
2022-12-17T16:43:38.995Z,53.83
2022-12-17T16:44:43.653Z,52.88
2022-12-17T16:45:51.429Z,52.95
2022-12-17T16:46:53.924Z,49.85
2022-12-17T16:47:56.253Z,48.38
2022-12-17T16:49:03.705Z,50.80
2022-12-17T16:50:06.290Z,46.97
2022-12-17T16:51:27.906Z,47.53
2022-12-17T16:52:32.065Z,49.00
2022-12-17T16:53:34.788Z,49.25
2022-12-17T16:54:37.116Z,47.47
2022-12-17T16:55:44.740Z,44.80
2022-12-17T16:56:47.457Z,45.97
2022-12-17T16:57:49.738Z,47.47
2022-12-17T16:58:52.584Z,46.22
2022-12-17T16:59:54.823Z,46.80
2022-12-17T17:00:57.071Z,44.75
2022-12-17T17:02:00.281Z,47.45
2022-12-17T17:03:04.201Z,47.88
2022-12-17T17:04:08.934Z,49.13
2022-12-17T17:05:11.281Z,48.80
2022-12-17T17:06:13.886Z,47.33
2022-12-17T17:07:16.085Z,45.88
2022-12-17T17:08:20.891Z,46.95
2022-12-17T17:09:24.815Z,45.70
2022-12-17T17:10:27.685Z,47.88
2022-12-17T17:11:29.873Z,45.95
2022-12-17T17:12:32.262Z,46.33
2022-12-17T17:13:34.783Z,48.03
2022-12-17T17:14:36.995Z,49.05
2022-12-17T17:15:39.320Z,49.17
2022-12-17T17:16:41.599Z,48.25
2022-12-17T17:17:54.471Z,44.17
2022-12-17T17:18:58.533Z,47.03
2022-12-17T17:20:00.830Z,48.65
2022-12-17T17:21:34.453Z,45.92
2022-12-17T17:22:36.683Z,44.75
2022-12-17T17:23:39.002Z,46.58
2022-12-17T17:24:41.234Z,44.35
2022-12-17T17:25:57.989Z,45.67
2022-12-17T17:27:00.900Z,45.67
2022-12-17T17:28:03.171Z,45.78
2022-12-17T17:29:06.068Z,46.78
2022-12-17T17:30:08.890Z,46.78
2022-12-17T17:31:13.823Z,48.63
2022-12-17T17:32:16.177Z,48.75
2022-12-17T17:33:18.444Z,46.50
2022-12-17T17:34:20.867Z,50.22
2022-12-17T17:35:23.097Z,47.08
2022-12-17T17:36:28.658Z,52.47
2022-12-17T17:37:31.059Z,54.28
2022-12-17T17:38:35.052Z,50.53
2022-12-17T17:39:37.526Z,52.70
2022-12-17T17:40:39.775Z,48.03
2022-12-17T17:41:42.043Z,50.00
2022-12-17T17:42:48.757Z,51.67
2022-12-17T17:43:55.665Z,54.13
2022-12-17T17:44:57.957Z,47.38
2022-12-17T17:46:09.171Z,50.45
2022-12-17T17:47:11.405Z,51.08
2022-12-17T17:48:13.748Z,48.63
2022-12-17T17:49:16.221Z,49.97
2022-12-17T17:50:18.469Z,49.00
2022-12-17T17:51:59.840Z,56.50
2022-12-17T17:52:52.076Z,50.40
2022-12-17T17:53:55.335Z,49.03
2022-12-17T17:54:57.618Z,52.10
2022-12-17T17:56:27.035Z,50.63
2022-12-17T17:57:29.401Z,47.72
2022-12-17T17:58:32.318Z,50.65
2022-12-17T17:59:34.670Z,52.33
2022-12-17T18:00:37.650Z,47.72
2022-12-17T18:01:46.739Z,46.80
2022-12-17T18:02:49.234Z,47.72
2022-12-17T18:03:53.052Z,46.88
2022-12-17T18:04:55.267Z,45.17
2022-12-17T18:06:02.129Z,47.50
2022-12-17T18:08:29.596Z,56.50
2022-12-17T18:09:31.819Z,50.38
2022-12-17T18:10:34.168Z,49.17
2022-12-17T18:11:37.894Z,49.30
2022-12-17T18:12:58.358Z,49.67
2022-12-17T18:14:01.731Z,46.53
2022-12-17T18:15:19.583Z,48.97
2022-12-17T18:16:35.330Z,48.13
2022-12-17T18:17:37.628Z,50.33
2022-12-17T18:18:40.749Z,51.20
2022-12-17T18:19:43.535Z,52.08
2022-12-17T18:20:45.769Z,52.85
2022-12-17T18:21:48.875Z,54.35
2022-12-17T18:22:51.119Z,53.20
2022-12-17T18:24:01.690Z,50.95
2022-12-17T18:25:05.332Z,49.10
2022-12-17T18:26:21.070Z,51.88
2022-12-17T18:27:23.297Z,46.65
2022-12-17T18:28:25.500Z,50.25
2022-12-17T18:29:28.780Z,51.15
2022-12-17T18:30:30.992Z,51.90
2022-12-17T18:31:33.260Z,54.25
2022-12-17T18:32:35.585Z,52.63
2022-12-17T18:33:40.288Z,54.10
2022-12-17T18:34:42.827Z,77.88
2022-12-17T18:35:46.057Z,61.55
2022-12-17T18:36:49.627Z,58.10
2022-12-17T18:37:52.219Z,59.28
2022-12-17T18:39:02.836Z,57.95
2022-12-17T18:40:06.763Z,56.28
2022-12-17T18:41:32.860Z,54.00
2022-12-17T18:42:53.921Z,48.85
2022-12-17T18:43:58.696Z,49.90
2022-12-17T18:45:01.022Z,53.17
2022-12-17T18:46:04.547Z,53.00
2022-12-17T18:47:07.120Z,54.40
2022-12-17T18:48:09.541Z,53.95
2022-12-17T18:49:14.017Z,56.20
2022-12-17T18:50:16.294Z,55.92
2022-12-17T18:51:18.511Z,56.38
2022-12-17T18:52:22.569Z,55.97